SBFZ

Pinto Martins International Airport

Fortaleza, Brazil
TAF SBFZ 182200Z 1900/1924 07008KT 8000 SCT018 TN24/1907Z TX30/1915Z TEMPO 1905/1910 4500 SHRA BKN015 RMK PEA
Issued Valid From Valid To
Jan-18 @ 22:00 UTC
(4 hours ago)
Jan-19 @ 00:00 UTC
(2 hours ago)
Jan-20 @ 00:00 UTC
(in 22 hours)
Jan-19 @ 00:00 to Jan-20 @ 00:00
TAF SBFZ 182200Z 1900/1924 07008KT 8000 SCT018 TN24/1907Z TX30/1915Z
Wind Visibility Clouds
70° at 8 knots 7,998 meters
  • Scattered at 1,800' AGL
Temporary Jan-19 @ 05:00 to Jan-19 @ 10:00
TEMPO 1905/1910 4500 SHRA BKN015 RMK PEA
Visibility Clouds Conditions
4,506 meters
  • Broken at 1,500' AGL
  • Rain
TAF SBFZ 182200Z 1900/1924 07008KT 8000 SCT018 TN24/1907Z TX30/1915Z TEMPO 1905/1910 4500 SHRA BKN015 RMK PEA
Issued Jan-18 @ 22:00 UTC
(4 hours ago)
Valid From Jan-19 @ 00:00 UTC
(2 hours ago)
Valid To Jan-20 @ 00:00 UTC
(in 22 hours)
Jan-19 @ 00:00 - Jan-20 @ 00:00
Wind Visibility
70° at 8 knots 7,998 meters
Clouds
  • Scattered at 1,800' AGL
Temporary Jan-19 @ 05:00 - Jan-19 @ 10:00
Clouds
  • Broken at 1,500' AGL
Conditions
  • Rain